sensor_id;sensor_type;location;lat;lon;timestamp;P1;durP1;ratioP1;P2;durP2;ratioP2
2462;SDS011;1243;54.298;10.172;2023-07-28T00:01:41;3.73;;;3.10;;
2462;SDS011;1243;54.298;10.172;2023-07-28T00:04:07;3.60;;;3.30;;
2462;SDS011;1243;54.298;10.172;2023-07-28T00:06:34;3.77;;;2.50;;
2462;SDS011;1243;54.298;10.172;2023-07-28T00:09:00;6.00;;;3.20;;
2462;SDS011;1243;54.298;10.172;2023-07-28T00:11:26;3.47;;;3.00;;
2462;SDS011;1243;54.298;10.172;2023-07-28T00:13:51;2.73;;;2.53;;
2462;SDS011;1243;54.298;10.172;2023-07-28T00:16:17;4.50;;;3.00;;
2462;SDS011;1243;54.298;10.172;2023-07-28T00:18:43;2.80;;;2.60;;
2462;SDS011;1243;54.298;10.172;2023-07-28T00:21:09;2.77;;;2.57;;
2462;SDS011;1243;54.298;10.172;2023-07-28T00:23:34;4.33;;;3.30;;
2462;SDS011;1243;54.298;10.172;2023-07-28T00:26:00;3.03;;;2.73;;
2462;SDS011;1243;54.298;10.172;2023-07-28T00:28:25;3.00;;;2.80;;
2462;SDS011;1243;54.298;10.172;2023-07-28T00:30:51;4.23;;;3.87;;
2462;SDS011;1243;54.298;10.172;2023-07-28T00:33:17;3.93;;;3.50;;
2462;SDS011;1243;54.298;10.172;2023-07-28T00:35:43;4.90;;;3.60;;
2462;SDS011;1243;54.298;10.172;2023-07-28T00:38:09;3.27;;;3.07;;
2462;SDS011;1243;54.298;10.172;2023-07-28T00:40:35;3.70;;;3.10;;
2462;SDS011;1243;54.298;10.172;2023-07-28T00:43:01;6.50;;;3.33;;
2462;SDS011;1243;54.298;10.172;2023-07-28T00:45:27;2.67;;;2.47;;
2462;SDS011;1243;54.298;10.172;2023-07-28T00:47:54;3.37;;;2.63;;
2462;SDS011;1243;54.298;10.172;2023-07-28T00:50:22;3.43;;;3.13;;
2462;SDS011;1243;54.298;10.172;2023-07-28T00:52:49;3.93;;;3.27;;
2462;SDS011;1243;54.298;10.172;2023-07-28T00:55:15;5.10;;;3.13;;
2462;SDS011;1243;54.298;10.172;2023-07-28T00:57:41;2.73;;;2.57;;
2462;SDS011;1243;54.298;10.172;2023-07-28T01:00:07;3.40;;;3.20;;
2462;SDS011;1243;54.298;10.172;2023-07-28T01:02:34;4.17;;;3.77;;
2462;SDS011;1243;54.298;10.172;2023-07-28T01:05:00;4.10;;;3.80;;
2462;SDS011;1243;54.298;10.172;2023-07-28T01:07:36;4.47;;;3.90;;
2462;SDS011;1243;54.298;10.172;2023-07-28T01:10:10;3.63;;;3.33;;
2462;SDS011;1243;54.298;10.172;2023-07-28T01:12:39;3.33;;;2.83;;
2462;SDS011;1243;54.298;10.172;2023-07-28T01:15:05;5.13;;;3.37;;
2462;SDS011;1243;54.298;10.172;2023-07-28T01:17:32;3.70;;;3.13;;
2462;SDS011;1243;54.298;10.172;2023-07-28T01:19:57;3.93;;;3.63;;
2462;SDS011;1243;54.298;10.172;2023-07-28T01:28:13;5.53;;;4.10;;
2462;SDS011;1243;54.298;10.172;2023-07-28T01:30:42;5.50;;;3.53;;
2462;SDS011;1243;54.298;10.172;2023-07-28T01:33:07;4.43;;;4.00;;
2462;SDS011;1243;54.298;10.172;2023-07-28T01:35:35;3.77;;;3.47;;
2462;SDS011;1243;54.298;10.172;2023-07-28T01:38:02;4.30;;;3.40;;
2462;SDS011;1243;54.298;10.172;2023-07-28T01:40:28;4.73;;;3.90;;
2462;SDS011;1243;54.298;10.172;2023-07-28T01:42:54;4.63;;;2.80;;
2462;SDS011;1243;54.298;10.172;2023-07-28T01:45:19;3.70;;;3.50;;
2462;SDS011;1243;54.298;10.172;2023-07-28T01:47:45;4.30;;;3.90;;
2462;SDS011;1243;54.298;10.172;2023-07-28T01:50:11;3.70;;;3.40;;
2462;SDS011;1243;54.298;10.172;2023-07-28T01:52:36;3.67;;;3.23;;
2462;SDS011;1243;54.298;10.172;2023-07-28T01:55:02;6.63;;;3.30;;
2462;SDS011;1243;54.298;10.172;2023-07-28T01:57:30;4.27;;;3.70;;
2462;SDS011;1243;54.298;10.172;2023-07-28T01:59:57;4.13;;;3.83;;
2462;SDS011;1243;54.298;10.172;2023-07-28T02:02:23;3.43;;;3.17;;
2462;SDS011;1243;54.298;10.172;2023-07-28T02:04:49;5.43;;;3.63;;
2462;SDS011;1243;54.298;10.172;2023-07-28T02:07:15;5.67;;;4.97;;
2462;SDS011;1243;54.298;10.172;2023-07-28T02:09:40;5.60;;;5.10;;
2462;SDS011;1243;54.298;10.172;2023-07-28T02:12:06;4.60;;;4.30;;
2462;SDS011;1243;54.298;10.172;2023-07-28T02:14:32;4.40;;;4.00;;
2462;SDS011;1243;54.298;10.172;2023-07-28T02:16:57;5.30;;;4.80;;
2462;SDS011;1243;54.298;10.172;2023-07-28T02:19:24;5.20;;;4.80;;
2462;SDS011;1243;54.298;10.172;2023-07-28T02:21:50;7.00;;;4.90;;
2462;SDS011;1243;54.298;10.172;2023-07-28T02:24:16;4.90;;;4.40;;
2462;SDS011;1243;54.298;10.172;2023-07-28T02:26:41;4.27;;;3.87;;
2462;SDS011;1243;54.298;10.172;2023-07-28T02:29:07;5.17;;;4.77;;
2462;SDS011;1243;54.298;10.172;2023-07-28T02:31:33;4.70;;;4.23;;
2462;SDS011;1243;54.298;10.172;2023-07-28T02:33:58;4.73;;;4.33;;
2462;SDS011;1243;54.298;10.172;2023-07-28T02:36:24;5.37;;;4.70;;
2462;SDS011;1243;54.298;10.172;2023-07-28T02:38:50;4.03;;;3.73;;
2462;SDS011;1243;54.298;10.172;2023-07-28T02:41:15;5.27;;;4.77;;
2462;SDS011;1243;54.298;10.172;2023-07-28T02:43:41;5.50;;;4.60;;
2462;SDS011;1243;54.298;10.172;2023-07-28T02:46:07;4.37;;;4.07;;
2462;SDS011;1243;54.298;10.172;2023-07-28T02:48:32;4.73;;;4.33;;
2462;SDS011;1243;54.298;10.172;2023-07-28T02:50:58;4.83;;;4.43;;
2462;SDS011;1243;54.298;10.172;2023-07-28T02:53:24;4.93;;;4.53;;
2462;SDS011;1243;54.298;10.172;2023-07-28T02:55:51;5.73;;;5.23;;
2462;SDS011;1243;54.298;10.172;2023-07-28T02:58:17;5.03;;;4.60;;
2462;SDS011;1243;54.298;10.172;2023-07-28T03:00:43;6.17;;;5.67;;
2462;SDS011;1243;54.298;10.172;2023-07-28T03:03:10;4.57;;;4.27;;
2462;SDS011;1243;54.298;10.172;2023-07-28T03:05:36;6.10;;;4.50;;
2462;SDS011;1243;54.298;10.172;2023-07-28T03:08:03;5.63;;;4.67;;
2462;SDS011;1243;54.298;10.172;2023-07-28T03:10:29;6.80;;;4.63;;
2462;SDS011;1243;54.298;10.172;2023-07-28T03:12:55;7.03;;;4.37;;
2462;SDS011;1243;54.298;10.172;2023-07-28T03:15:21;5.03;;;4.53;;
2462;SDS011;1243;54.298;10.172;2023-07-28T03:17:47;5.27;;;4.77;;
2462;SDS011;1243;54.298;10.172;2023-07-28T03:20:14;7.10;;;4.47;;
2462;SDS011;1243;54.298;10.172;2023-07-28T03:22:40;6.90;;;4.80;;
2462;SDS011;1243;54.298;10.172;2023-07-28T03:25:06;4.87;;;4.40;;
2462;SDS011;1243;54.298;10.172;2023-07-28T03:27:32;5.13;;;4.63;;
2462;SDS011;1243;54.298;10.172;2023-07-28T03:29:57;5.17;;;4.47;;
2462;SDS011;1243;54.298;10.172;2023-07-28T03:32:23;4.27;;;3.90;;
2462;SDS011;1243;54.298;10.172;2023-07-28T03:34:49;4.37;;;4.07;;
2462;SDS011;1243;54.298;10.172;2023-07-28T03:37:14;4.43;;;4.10;;
2462;SDS011;1243;54.298;10.172;2023-07-28T03:39:40;5.30;;;4.80;;
2462;SDS011;1243;54.298;10.172;2023-07-28T03:42:06;6.27;;;4.20;;
2462;SDS011;1243;54.298;10.172;2023-07-28T03:44:32;6.43;;;4.07;;
2462;SDS011;1243;54.298;10.172;2023-07-28T03:46:58;5.73;;;4.80;;
2462;SDS011;1243;54.298;10.172;2023-07-28T03:49:24;4.33;;;4.03;;
2462;SDS011;1243;54.298;10.172;2023-07-28T03:51:50;5.50;;;4.90;;
2462;SDS011;1243;54.298;10.172;2023-07-28T03:54:16;4.73;;;4.40;;
2462;SDS011;1243;54.298;10.172;2023-07-28T03:56:41;4.67;;;4.27;;
2462;SDS011;1243;54.298;10.172;2023-07-28T03:59:07;5.27;;;4.90;;
2462;SDS011;1243;54.298;10.172;2023-07-28T04:01:33;4.40;;;4.00;;
2462;SDS011;1243;54.298;10.172;2023-07-28T04:03:58;4.63;;;4.33;;
2462;SDS011;1243;54.298;10.172;2023-07-28T04:09:10;5.40;;;4.10;;
2462;SDS011;1243;54.298;10.172;2023-07-28T04:11:38;5.33;;;4.83;;
2462;SDS011;1243;54.298;10.172;2023-07-28T04:14:04;6.43;;;4.20;;
2462;SDS011;1243;54.298;10.172;2023-07-28T04:16:30;5.73;;;4.37;;
2462;SDS011;1243;54.298;10.172;2023-07-28T04:18:56;4.60;;;4.27;;
2462;SDS011;1243;54.298;10.172;2023-07-28T04:21:22;6.80;;;4.27;;
2462;SDS011;1243;54.298;10.172;2023-07-28T04:23:47;5.30;;;4.80;;
2462;SDS011;1243;54.298;10.172;2023-07-28T04:26:13;5.73;;;5.00;;
2462;SDS011;1243;54.298;10.172;2023-07-28T04:28:39;4.80;;;4.03;;
2462;SDS011;1243;54.298;10.172;2023-07-28T04:31:05;5.37;;;4.40;;
2462;SDS011;1243;54.298;10.172;2023-07-28T04:33:31;7.43;;;4.67;;
2462;SDS011;1243;54.298;10.172;2023-07-28T04:35:56;4.80;;;4.40;;
2462;SDS011;1243;54.298;10.172;2023-07-28T04:38:22;5.00;;;4.60;;
2462;SDS011;1243;54.298;10.172;2023-07-28T04:40:48;5.90;;;5.33;;
2462;SDS011;1243;54.298;10.172;2023-07-28T04:43:14;5.27;;;4.87;;
2462;SDS011;1243;54.298;10.172;2023-07-28T04:45:39;5.40;;;5.00;;
2462;SDS011;1243;54.298;10.172;2023-07-28T04:48:05;4.80;;;4.40;;
2462;SDS011;1243;54.298;10.172;2023-07-28T04:50:30;8.60;;;4.77;;
2462;SDS011;1243;54.298;10.172;2023-07-28T04:52:58;7.10;;;5.53;;
2462;SDS011;1243;54.298;10.172;2023-07-28T04:55:24;10.30;;;5.87;;
2462;SDS011;1243;54.298;10.172;2023-07-28T04:57:51;5.27;;;4.77;;
2462;SDS011;1243;54.298;10.172;2023-07-28T05:00:17;6.30;;;4.40;;
2462;SDS011;1243;54.298;10.172;2023-07-28T05:02:43;4.50;;;4.10;;
2462;SDS011;1243;54.298;10.172;2023-07-28T05:05:09;5.37;;;4.87;;
2462;SDS011;1243;54.298;10.172;2023-07-28T05:07:35;5.27;;;4.77;;
2462;SDS011;1243;54.298;10.172;2023-07-28T05:10:01;8.93;;;6.30;;
2462;SDS011;1243;54.298;10.172;2023-07-28T05:12:27;7.37;;;5.00;;
2462;SDS011;1243;54.298;10.172;2023-07-28T05:14:53;6.00;;;5.40;;
2462;SDS011;1243;54.298;10.172;2023-07-28T05:17:19;7.87;;;5.30;;
2462;SDS011;1243;54.298;10.172;2023-07-28T05:19:44;5.70;;;5.23;;
2462;SDS011;1243;54.298;10.172;2023-07-28T05:22:10;5.80;;;5.30;;
2462;SDS011;1243;54.298;10.172;2023-07-28T05:24:36;10.83;;;5.57;;
2462;SDS011;1243;54.298;10.172;2023-07-28T05:27:02;7.53;;;5.33;;
2462;SDS011;1243;54.298;10.172;2023-07-28T05:29:27;6.33;;;5.73;;
2462;SDS011;1243;54.298;10.172;2023-07-28T05:31:53;9.17;;;6.37;;
2462;SDS011;1243;54.298;10.172;2023-07-28T05:34:19;7.00;;;5.60;;
2462;SDS011;1243;54.298;10.172;2023-07-28T05:36:45;6.37;;;5.77;;
2462;SDS011;1243;54.298;10.172;2023-07-28T05:39:10;10.03;;;7.20;;
2462;SDS011;1243;54.298;10.172;2023-07-28T05:41:36;8.90;;;7.40;;
2462;SDS011;1243;54.298;10.172;2023-07-28T05:44:02;7.00;;;6.03;;
2462;SDS011;1243;54.298;10.172;2023-07-28T05:46:28;7.90;;;7.10;;
2462;SDS011;1243;54.298;10.172;2023-07-28T05:48:54;7.27;;;5.83;;
2462;SDS011;1243;54.298;10.172;2023-07-28T05:51:21;7.57;;;6.77;;
2462;SDS011;1243;54.298;10.172;2023-07-28T05:53:48;8.20;;;7.37;;
2462;SDS011;1243;54.298;10.172;2023-07-28T05:56:14;7.13;;;6.40;;
2462;SDS011;1243;54.298;10.172;2023-07-28T05:58:40;9.43;;;7.67;;
2462;SDS011;1243;54.298;10.172;2023-07-28T06:01:06;8.27;;;7.43;;
2462;SDS011;1243;54.298;10.172;2023-07-28T06:03:31;7.93;;;7.20;;
2462;SDS011;1243;54.298;10.172;2023-07-28T06:05:57;9.00;;;8.20;;
2462;SDS011;1243;54.298;10.172;2023-07-28T06:08:23;10.63;;;9.60;;
2462;SDS011;1243;54.298;10.172;2023-07-28T06:10:48;14.43;;;8.03;;
2462;SDS011;1243;54.298;10.172;2023-07-28T06:13:14;8.80;;;7.90;;
2462;SDS011;1243;54.298;10.172;2023-07-28T06:15:41;11.00;;;9.10;;
2462;SDS011;1243;54.298;10.172;2023-07-28T06:18:06;12.67;;;8.47;;
2462;SDS011;1243;54.298;10.172;2023-07-28T06:20:32;9.67;;;8.43;;
2462;SDS011;1243;54.298;10.172;2023-07-28T06:22:59;9.40;;;8.50;;
2462;SDS011;1243;54.298;10.172;2023-07-28T06:25:25;9.50;;;7.57;;
2462;SDS011;1243;54.298;10.172;2023-07-28T06:27:51;10.03;;;8.50;;
2462;SDS011;1243;54.298;10.172;2023-07-28T06:30:16;10.57;;;9.10;;
2462;SDS011;1243;54.298;10.172;2023-07-28T06:32:42;10.00;;;7.97;;
2462;SDS011;1243;54.298;10.172;2023-07-28T06:35:08;8.23;;;7.43;;
2462;SDS011;1243;54.298;10.172;2023-07-28T06:37:34;8.30;;;7.50;;
2462;SDS011;1243;54.298;10.172;2023-07-28T06:40:06;7.87;;;6.87;;
2462;SDS011;1243;54.298;10.172;2023-07-28T06:42:34;7.87;;;7.17;;
2462;SDS011;1243;54.298;10.172;2023-07-28T06:45:01;10.10;;;6.83;;
2462;SDS011;1243;54.298;10.172;2023-07-28T06:47:28;8.33;;;6.90;;
2462;SDS011;1243;54.298;10.172;2023-07-28T06:49:54;8.03;;;6.50;;
2462;SDS011;1243;54.298;10.172;2023-07-28T06:52:19;7.80;;;7.00;;
2462;SDS011;1243;54.298;10.172;2023-07-28T06:54:45;6.70;;;6.10;;
2462;SDS011;1243;54.298;10.172;2023-07-28T06:57:12;7.30;;;5.53;;
2462;SDS011;1243;54.298;10.172;2023-07-28T06:59:38;7.47;;;6.13;;
2462;SDS011;1243;54.298;10.172;2023-07-28T07:02:04;5.47;;;4.97;;
2462;SDS011;1243;54.298;10.172;2023-07-28T07:04:30;7.23;;;5.53;;
2462;SDS011;1243;54.298;10.172;2023-07-28T07:06:56;7.63;;;6.20;;
2462;SDS011;1243;54.298;10.172;2023-07-28T07:09:21;9.77;;;5.90;;
2462;SDS011;1243;54.298;10.172;2023-07-28T07:11:47;7.43;;;5.90;;
2462;SDS011;1243;54.298;10.172;2023-07-28T07:14:13;5.70;;;5.30;;
2462;SDS011;1243;54.298;10.172;2023-07-28T07:16:39;6.03;;;5.20;;
2462;SDS011;1243;54.298;10.172;2023-07-28T07:19:05;7.67;;;5.20;;
2462;SDS011;1243;54.298;10.172;2023-07-28T07:21:31;11.27;;;5.33;;
2462;SDS011;1243;54.298;10.172;2023-07-28T07:23:56;5.47;;;5.07;;
2462;SDS011;1243;54.298;10.172;2023-07-28T07:26:22;7.13;;;5.50;;
2462;SDS011;1243;54.298;10.172;2023-07-28T07:28:48;7.60;;;5.43;;
2462;SDS011;1243;54.298;10.172;2023-07-28T07:31:14;7.43;;;6.43;;
2462;SDS011;1243;54.298;10.172;2023-07-28T07:33:40;5.77;;;5.33;;
2462;SDS011;1243;54.298;10.172;2023-07-28T07:36:16;7.27;;;4.87;;
2462;SDS011;1243;54.298;10.172;2023-07-28T07:38:43;8.80;;;4.80;;
2462;SDS011;1243;54.298;10.172;2023-07-28T07:41:12;6.70;;;4.40;;
2462;SDS011;1243;54.298;10.172;2023-07-28T07:43:44;3.80;;;3.60;;
2462;SDS011;1243;54.298;10.172;2023-07-28T07:46:10;14.97;;;4.90;;
2462;SDS011;1243;54.298;10.172;2023-07-28T07:48:36;5.33;;;4.47;;
2462;SDS011;1243;54.298;10.172;2023-07-28T07:51:01;4.23;;;3.93;;
2462;SDS011;1243;54.298;10.172;2023-07-28T07:53:27;4.47;;;4.07;;
2462;SDS011;1243;54.298;10.172;2023-07-28T07:55:53;4.60;;;3.83;;
2462;SDS011;1243;54.298;10.172;2023-07-28T07:58:19;3.60;;;3.30;;
2462;SDS011;1243;54.298;10.172;2023-07-28T08:00:44;10.33;;;4.20;;
2462;SDS011;1243;54.298;10.172;2023-07-28T08:03:10;4.90;;;3.60;;
2462;SDS011;1243;54.298;10.172;2023-07-28T08:05:36;6.60;;;4.83;;
2462;SDS011;1243;54.298;10.172;2023-07-28T08:08:02;4.40;;;3.97;;
2462;SDS011;1243;54.298;10.172;2023-07-28T08:10:28;4.33;;;3.93;;
2462;SDS011;1243;54.298;10.172;2023-07-28T08:12:54;4.20;;;3.70;;
2462;SDS011;1243;54.298;10.172;2023-07-28T08:15:20;3.80;;;3.27;;
2462;SDS011;1243;54.298;10.172;2023-07-28T08:17:46;3.10;;;2.90;;
2462;SDS011;1243;54.298;10.172;2023-07-28T08:20:12;4.30;;;3.60;;
2462;SDS011;1243;54.298;10.172;2023-07-28T08:22:38;3.80;;;3.50;;
2462;SDS011;1243;54.298;10.172;2023-07-28T08:25:04;3.37;;;3.07;;
2462;SDS011;1243;54.298;10.172;2023-07-28T08:27:30;3.77;;;3.50;;
2462;SDS011;1243;54.298;10.172;2023-07-28T08:29:56;3.83;;;3.53;;
2462;SDS011;1243;54.298;10.172;2023-07-28T08:32:21;3.60;;;3.30;;
2462;SDS011;1243;54.298;10.172;2023-07-28T08:34:47;5.80;;;3.80;;
2462;SDS011;1243;54.298;10.172;2023-07-28T08:37:13;2.97;;;2.77;;
2462;SDS011;1243;54.298;10.172;2023-07-28T08:39:39;3.60;;;3.30;;
2462;SDS011;1243;54.298;10.172;2023-07-28T08:42:05;3.57;;;3.30;;
2462;SDS011;1243;54.298;10.172;2023-07-28T08:44:31;3.67;;;3.20;;
2462;SDS011;1243;54.298;10.172;2023-07-28T08:47:04;4.87;;;3.67;;
2462;SDS011;1243;54.298;10.172;2023-07-28T08:49:31;3.53;;;3.23;;
2462;SDS011;1243;54.298;10.172;2023-07-28T08:51:58;3.63;;;2.77;;
2462;SDS011;1243;54.298;10.172;2023-07-28T08:54:25;4.57;;;3.40;;
2462;SDS011;1243;54.298;10.172;2023-07-28T08:56:51;3.40;;;3.10;;
2462;SDS011;1243;54.298;10.172;2023-07-28T08:59:21;4.90;;;3.70;;
2462;SDS011;1243;54.298;10.172;2023-07-28T09:01:55;3.47;;;3.23;;
2462;SDS011;1243;54.298;10.172;2023-07-28T09:04:25;3.30;;;3.00;;
2462;SDS011;1243;54.298;10.172;2023-07-28T09:06:51;3.60;;;3.30;;
2462;SDS011;1243;54.298;10.172;2023-07-28T09:09:18;4.37;;;3.97;;
2462;SDS011;1243;54.298;10.172;2023-07-28T09:11:47;4.27;;;3.97;;
2462;SDS011;1243;54.298;10.172;2023-07-28T09:14:18;3.43;;;3.13;;
2462;SDS011;1243;54.298;10.172;2023-07-28T09:16:47;5.30;;;3.00;;
2462;SDS011;1243;54.298;10.172;2023-07-28T09:19:13;3.93;;;3.10;;
2462;SDS011;1243;54.298;10.172;2023-07-28T09:21:39;4.57;;;3.87;;
2462;SDS011;1243;54.298;10.172;2023-07-28T09:24:12;4.20;;;3.20;;
2462;SDS011;1243;54.298;10.172;2023-07-28T09:26:48;5.43;;;3.40;;
2462;SDS011;1243;54.298;10.172;2023-07-28T09:29:16;5.50;;;3.77;;
2462;SDS011;1243;54.298;10.172;2023-07-28T09:31:43;3.20;;;3.00;;
2462;SDS011;1243;54.298;10.172;2023-07-28T09:34:10;8.00;;;3.87;;
2462;SDS011;1243;54.298;10.172;2023-07-28T09:36:38;3.57;;;3.27;;
2462;SDS011;1243;54.298;10.172;2023-07-28T09:39:07;3.70;;;3.40;;
2462;SDS011;1243;54.298;10.172;2023-07-28T09:41:36;3.53;;;3.23;;
2462;SDS011;1243;54.298;10.172;2023-07-28T09:44:05;3.50;;;2.90;;
2462;SDS011;1243;54.298;10.172;2023-07-28T09:46:34;3.83;;;3.00;;
2462;SDS011;1243;54.298;10.172;2023-07-28T09:49:05;3.80;;;3.43;;
2462;SDS011;1243;54.298;10.172;2023-07-28T09:51:33;4.13;;;2.60;;
2462;SDS011;1243;54.298;10.172;2023-07-28T09:54:04;3.90;;;3.27;;
2462;SDS011;1243;54.298;10.172;2023-07-28T09:56:31;3.73;;;3.53;;
2462;SDS011;1243;54.298;10.172;2023-07-28T09:58:58;3.83;;;3.53;;
2462;SDS011;1243;54.298;10.172;2023-07-28T10:01:25;3.73;;;3.13;;
2462;SDS011;1243;54.298;10.172;2023-07-28T10:03:53;3.17;;;2.97;;
2462;SDS011;1243;54.298;10.172;2023-07-28T10:06:19;3.27;;;3.00;;
2462;SDS011;1243;54.298;10.172;2023-07-28T10:08:49;3.20;;;2.60;;
2462;SDS011;1243;54.298;10.172;2023-07-28T10:11:15;3.20;;;2.90;;
2462;SDS011;1243;54.298;10.172;2023-07-28T10:13:42;3.77;;;3.10;;
2462;SDS011;1243;54.298;10.172;2023-07-28T10:16:09;4.73;;;2.77;;
2462;SDS011;1243;54.298;10.172;2023-07-28T10:18:35;3.87;;;2.70;;
2462;SDS011;1243;54.298;10.172;2023-07-28T10:21:05;2.70;;;2.50;;
2462;SDS011;1243;54.298;10.172;2023-07-28T10:23:38;3.17;;;2.97;;
2462;SDS011;1243;54.298;10.172;2023-07-28T10:26:04;3.10;;;2.90;;
2462;SDS011;1243;54.298;10.172;2023-07-28T10:28:31;3.07;;;2.87;;
2462;SDS011;1243;54.298;10.172;2023-07-28T10:31:03;3.13;;;2.70;;
2462;SDS011;1243;54.298;10.172;2023-07-28T10:33:41;2.30;;;2.10;;
2462;SDS011;1243;54.298;10.172;2023-07-28T10:39:32;2.63;;;2.43;;
2462;SDS011;1243;54.298;10.172;2023-07-28T10:44:37;2.37;;;2.17;;
2462;SDS011;1243;54.298;10.172;2023-07-28T10:47:07;2.83;;;2.60;;
2462;SDS011;1243;54.298;10.172;2023-07-28T10:49:34;4.07;;;2.70;;
2462;SDS011;1243;54.298;10.172;2023-07-28T10:51:59;2.80;;;2.30;;
2462;SDS011;1243;54.298;10.172;2023-07-28T10:54:25;7.40;;;3.60;;
2462;SDS011;1243;54.298;10.172;2023-07-28T10:56:51;4.20;;;1.90;;
2462;SDS011;1243;54.298;10.172;2023-07-28T10:59:17;4.47;;;2.63;;
2462;SDS011;1243;54.298;10.172;2023-07-28T11:01:43;2.60;;;2.33;;
2462;SDS011;1243;54.298;10.172;2023-07-28T11:06:43;2.63;;;2.20;;
2462;SDS011;1243;54.298;10.172;2023-07-28T11:09:11;2.50;;;2.30;;
2462;SDS011;1243;54.298;10.172;2023-07-28T11:11:38;2.67;;;2.10;;
2462;SDS011;1243;54.298;10.172;2023-07-28T11:14:04;3.50;;;2.43;;
2462;SDS011;1243;54.298;10.172;2023-07-28T11:16:33;3.30;;;2.07;;
2462;SDS011;1243;54.298;10.172;2023-07-28T11:19:00;2.50;;;2.20;;
2462;SDS011;1243;54.298;10.172;2023-07-28T11:21:27;2.33;;;1.80;;
2462;SDS011;1243;54.298;10.172;2023-07-28T11:23:53;2.30;;;2.10;;
2462;SDS011;1243;54.298;10.172;2023-07-28T11:26:19;1.90;;;1.80;;
2462;SDS011;1243;54.298;10.172;2023-07-28T11:28:47;1.87;;;1.63;;
2462;SDS011;1243;54.298;10.172;2023-07-28T11:31:13;2.07;;;1.87;;
2462;SDS011;1243;54.298;10.172;2023-07-28T11:33:39;2.03;;;1.70;;
2462;SDS011;1243;54.298;10.172;2023-07-28T11:36:05;2.00;;;1.83;;
2462;SDS011;1243;54.298;10.172;2023-07-28T11:38:31;2.50;;;1.90;;
2462;SDS011;1243;54.298;10.172;2023-07-28T11:40:59;2.03;;;1.70;;
2462;SDS011;1243;54.298;10.172;2023-07-28T11:43:25;3.93;;;1.60;;
2462;SDS011;1243;54.298;10.172;2023-07-28T11:45:51;8.30;;;2.10;;
2462;SDS011;1243;54.298;10.172;2023-07-28T11:48:16;2.30;;;2.10;;
2462;SDS011;1243;54.298;10.172;2023-07-28T11:50:43;4.57;;;1.97;;
2462;SDS011;1243;54.298;10.172;2023-07-28T11:53:10;2.17;;;2.07;;
2462;SDS011;1243;54.298;10.172;2023-07-28T11:55:39;4.33;;;1.87;;
2462;SDS011;1243;54.298;10.172;2023-07-28T11:58:06;3.77;;;2.07;;
2462;SDS011;1243;54.298;10.172;2023-07-28T12:00:35;3.17;;;1.80;;
2462;SDS011;1243;54.298;10.172;2023-07-28T12:03:06;1.83;;;1.70;;
2462;SDS011;1243;54.298;10.172;2023-07-28T12:05:34;2.20;;;2.00;;
2462;SDS011;1243;54.298;10.172;2023-07-28T12:08:01;2.50;;;2.30;;
2462;SDS011;1243;54.298;10.172;2023-07-28T12:10:28;2.50;;;2.30;;
2462;SDS011;1243;54.298;10.172;2023-07-28T12:12:54;1.90;;;1.70;;
2462;SDS011;1243;54.298;10.172;2023-07-28T12:20:36;3.83;;;1.50;;
2462;SDS011;1243;54.298;10.172;2023-07-28T12:23:04;2.30;;;2.10;;
2462;SDS011;1243;54.298;10.172;2023-07-28T12:25:30;1.70;;;1.60;;
2462;SDS011;1243;54.298;10.172;2023-07-28T12:27:56;1.80;;;1.70;;
2462;SDS011;1243;54.298;10.172;2023-07-28T12:30:22;1.63;;;1.53;;
2462;SDS011;1243;54.298;10.172;2023-07-28T12:32:48;2.37;;;1.50;;
2462;SDS011;1243;54.298;10.172;2023-07-28T12:35:14;2.00;;;1.63;;
2462;SDS011;1243;54.298;10.172;2023-07-28T12:37:40;2.17;;;1.73;;
2462;SDS011;1243;54.298;10.172;2023-07-28T12:40:07;2.00;;;1.87;;
2462;SDS011;1243;54.298;10.172;2023-07-28T12:42:33;1.70;;;1.60;;
2462;SDS011;1243;54.298;10.172;2023-07-28T12:44:59;2.70;;;1.70;;
2462;SDS011;1243;54.298;10.172;2023-07-28T12:47:25;1.93;;;1.83;;
2462;SDS011;1243;54.298;10.172;2023-07-28T12:49:51;2.13;;;2.03;;
2462;SDS011;1243;54.298;10.172;2023-07-28T12:52:17;1.73;;;1.63;;
2462;SDS011;1243;54.298;10.172;2023-07-28T12:54:42;2.27;;;2.07;;
2462;SDS011;1243;54.298;10.172;2023-07-28T12:57:08;2.80;;;2.00;;
2462;SDS011;1243;54.298;10.172;2023-07-28T12:59:37;1.93;;;1.83;;
2462;SDS011;1243;54.298;10.172;2023-07-28T13:02:03;2.80;;;1.87;;
2462;SDS011;1243;54.298;10.172;2023-07-28T13:04:29;3.60;;;1.77;;
2462;SDS011;1243;54.298;10.172;2023-07-28T13:06:54;1.83;;;1.70;;
2462;SDS011;1243;54.298;10.172;2023-07-28T13:09:20;2.00;;;1.83;;
2462;SDS011;1243;54.298;10.172;2023-07-28T13:11:46;4.23;;;1.93;;
2462;SDS011;1243;54.298;10.172;2023-07-28T13:14:11;2.00;;;1.90;;
2462;SDS011;1243;54.298;10.172;2023-07-28T13:16:37;1.60;;;1.50;;
2462;SDS011;1243;54.298;10.172;2023-07-28T13:19:06;2.00;;;1.90;;
2462;SDS011;1243;54.298;10.172;2023-07-28T13:21:31;2.70;;;1.60;;
2462;SDS011;1243;54.298;10.172;2023-07-28T13:23:58;2.40;;;2.00;;
2462;SDS011;1243;54.298;10.172;2023-07-28T13:26:24;2.10;;;1.90;;
2462;SDS011;1243;54.298;10.172;2023-07-28T13:28:50;2.03;;;1.80;;
2462;SDS011;1243;54.298;10.172;2023-07-28T13:31:16;1.80;;;1.70;;
2462;SDS011;1243;54.298;10.172;2023-07-28T13:33:42;2.50;;;1.80;;
2462;SDS011;1243;54.298;10.172;2023-07-28T13:36:09;1.97;;;1.87;;
2462;SDS011;1243;54.298;10.172;2023-07-28T13:38:34;1.67;;;1.57;;
2462;SDS011;1243;54.298;10.172;2023-07-28T13:41:01;1.47;;;1.37;;
2462;SDS011;1243;54.298;10.172;2023-07-28T13:43:29;3.10;;;1.53;;
2462;SDS011;1243;54.298;10.172;2023-07-28T13:45:55;1.83;;;1.73;;
2462;SDS011;1243;54.298;10.172;2023-07-28T13:48:21;4.43;;;1.97;;
2462;SDS011;1243;54.298;10.172;2023-07-28T13:50:46;1.63;;;1.53;;
2462;SDS011;1243;54.298;10.172;2023-07-28T13:53:12;2.73;;;1.60;;
2462;SDS011;1243;54.298;10.172;2023-07-28T13:55:38;3.23;;;1.80;;
2462;SDS011;1243;54.298;10.172;2023-07-28T13:58:03;2.10;;;1.80;;
2462;SDS011;1243;54.298;10.172;2023-07-28T14:00:31;2.27;;;2.07;;
2462;SDS011;1243;54.298;10.172;2023-07-28T14:02:57;1.90;;;1.80;;
2462;SDS011;1243;54.298;10.172;2023-07-28T14:05:23;2.20;;;2.00;;
2462;SDS011;1243;54.298;10.172;2023-07-28T14:07:48;2.23;;;2.03;;
2462;SDS011;1243;54.298;10.172;2023-07-28T14:10:14;1.73;;;1.63;;
2462;SDS011;1243;54.298;10.172;2023-07-28T14:12:42;1.80;;;1.70;;
2462;SDS011;1243;54.298;10.172;2023-07-28T14:15:08;1.90;;;1.40;;
2462;SDS011;1243;54.298;10.172;2023-07-28T14:17:34;3.00;;;1.97;;
2462;SDS011;1243;54.298;10.172;2023-07-28T14:19:59;2.40;;;1.67;;
2462;SDS011;1243;54.298;10.172;2023-07-28T14:22:25;1.67;;;1.30;;
2462;SDS011;1243;54.298;10.172;2023-07-28T14:24:51;1.93;;;1.50;;
2462;SDS011;1243;54.298;10.172;2023-07-28T14:27:17;1.97;;;1.87;;
2462;SDS011;1243;54.298;10.172;2023-07-28T14:29:42;1.67;;;1.57;;
2462;SDS011;1243;54.298;10.172;2023-07-28T14:32:08;2.60;;;1.80;;
2462;SDS011;1243;54.298;10.172;2023-07-28T14:34:34;2.03;;;1.87;;
2462;SDS011;1243;54.298;10.172;2023-07-28T14:37:03;5.10;;;1.70;;
2462;SDS011;1243;54.298;10.172;2023-07-28T14:39:32;2.37;;;2.07;;
2462;SDS011;1243;54.298;10.172;2023-07-28T14:41:58;1.93;;;1.73;;
2462;SDS011;1243;54.298;10.172;2023-07-28T14:44:24;3.43;;;2.17;;
2462;SDS011;1243;54.298;10.172;2023-07-28T14:46:50;2.47;;;1.77;;
2462;SDS011;1243;54.298;10.172;2023-07-28T14:49:16;1.70;;;1.60;;
2462;SDS011;1243;54.298;10.172;2023-07-28T14:51:42;1.90;;;1.80;;
2462;SDS011;1243;54.298;10.172;2023-07-28T14:54:07;2.37;;;2.03;;
2462;SDS011;1243;54.298;10.172;2023-07-28T14:56:33;2.27;;;1.70;;
2462;SDS011;1243;54.298;10.172;2023-07-28T14:58:59;1.73;;;1.50;;
2462;SDS011;1243;54.298;10.172;2023-07-28T15:01:28;2.30;;;2.20;;
2462;SDS011;1243;54.298;10.172;2023-07-28T15:03:54;2.23;;;2.10;;
2462;SDS011;1243;54.298;10.172;2023-07-28T15:06:20;2.17;;;2.07;;
2462;SDS011;1243;54.298;10.172;2023-07-28T15:08:46;1.97;;;1.87;;
2462;SDS011;1243;54.298;10.172;2023-07-28T15:11:13;2.60;;;2.40;;
2462;SDS011;1243;54.298;10.172;2023-07-28T15:13:39;3.40;;;2.47;;
2462;SDS011;1243;54.298;10.172;2023-07-28T15:16:05;2.60;;;2.10;;
2462;SDS011;1243;54.298;10.172;2023-07-28T15:18:31;2.27;;;1.93;;